KLUK/LUK METAR and TAF weather

Enter ICAO airport designator
Station Type Date Time Source
KLUK METAR 2019/06/26 05:53 UTC NOAA

KLUK 260553Z AUTO 00000KT 10SM CLR 18/18 A3008 RMK AO2 SLP181 T01830178 10261 20183 51012


Station Type Date Time Source
KLUK Decoded METAR 2019/06/26 05:53 UTC NOAA

CINCINNATI MUN LUNKEN FLD, OH, United States (KLUK) 39-06N 84-25W 155M
Jun 26, 2019 - 01:53 AM EDT / 2019.06.26 0553 UTC
Wind: Calm:0
Visibility: 10 mile(s):0
Sky conditions: clear
Temperature: 64.9 F (18.3 C)
Dew Point: 64.0 F (17.8 C)
Relative Humidity: 96%
Pressure (altimeter): 30.08 in. Hg (1018 hPa)
Pressure tendency: 0.04 inches (1.2 hPa) higher than three hours ago
ob: KLUK 260553Z AUTO 00000KT 10SM CLR 18/18 A3008 RMK AO2 SLP181 T01830178 10261 20183 51012
cycle: 6

Station Type Date Time Source
KLUK TAF 2019/06/26 06:42 UTC NOAA

TAF KLUK 260540Z 2606/2706 00000KT P6SM SCT150
FM261200 22003KT P6SM SCT150
FM261700 24004KT P6SM FEW050
FM270100 VRB02KT P6SM FEW150

Example: see airport list